sensor_id;sensor_type;location;lat;lon;timestamp;P1;durP1;ratioP1;P2;durP2;ratioP2
62633;SDS011;48704;50.534;6.442;2024-03-17T00:00:47;4.78;;;2.88;;
62633;SDS011;48704;50.534;6.442;2024-03-17T00:03:13;4.68;;;2.65;;
62633;SDS011;48704;50.534;6.442;2024-03-17T00:05:38;5.40;;;2.80;;
62633;SDS011;48704;50.534;6.442;2024-03-17T00:08:04;4.50;;;2.75;;
62633;SDS011;48704;50.534;6.442;2024-03-17T00:10:32;6.03;;;3.35;;
62633;SDS011;48704;50.534;6.442;2024-03-17T00:12:58;6.00;;;3.47;;
62633;SDS011;48704;50.534;6.442;2024-03-17T00:15:23;5.45;;;3.08;;
62633;SDS011;48704;50.534;6.442;2024-03-17T00:17:49;4.45;;;2.95;;
62633;SDS011;48704;50.534;6.442;2024-03-17T00:20:14;4.43;;;2.33;;
62633;SDS011;48704;50.534;6.442;2024-03-17T00:22:47;3.45;;;2.45;;
62633;SDS011;48704;50.534;6.442;2024-03-17T00:25:14;3.90;;;2.60;;
62633;SDS011;48704;50.534;6.442;2024-03-17T00:27:40;4.03;;;2.63;;
62633;SDS011;48704;50.534;6.442;2024-03-17T00:30:08;5.05;;;2.53;;
62633;SDS011;48704;50.534;6.442;2024-03-17T00:32:37;5.05;;;3.08;;
62633;SDS011;48704;50.534;6.442;2024-03-17T00:35:04;5.80;;;3.03;;
62633;SDS011;48704;50.534;6.442;2024-03-17T00:37:30;4.03;;;2.75;;
62633;SDS011;48704;50.534;6.442;2024-03-17T00:39:55;5.65;;;2.88;;
62633;SDS011;48704;50.534;6.442;2024-03-17T00:42:20;5.45;;;2.92;;
62633;SDS011;48704;50.534;6.442;2024-03-17T00:44:46;5.88;;;2.92;;
62633;SDS011;48704;50.534;6.442;2024-03-17T00:47:11;4.75;;;2.78;;
62633;SDS011;48704;50.534;6.442;2024-03-17T00:49:36;6.32;;;2.95;;
62633;SDS011;48704;50.534;6.442;2024-03-17T00:52:02;7.05;;;2.97;;
62633;SDS011;48704;50.534;6.442;2024-03-17T00:54:27;5.60;;;3.13;;
62633;SDS011;48704;50.534;6.442;2024-03-17T00:56:52;7.43;;;3.30;;
62633;SDS011;48704;50.534;6.442;2024-03-17T00:59:18;5.75;;;3.17;;
62633;SDS011;48704;50.534;6.442;2024-03-17T01:01:43;4.85;;;3.20;;
62633;SDS011;48704;50.534;6.442;2024-03-17T01:04:09;5.70;;;2.97;;
62633;SDS011;48704;50.534;6.442;2024-03-17T01:06:34;5.57;;;3.15;;
62633;SDS011;48704;50.534;6.442;2024-03-17T01:08:59;5.95;;;2.83;;
62633;SDS011;48704;50.534;6.442;2024-03-17T01:11:25;5.53;;;3.15;;
62633;SDS011;48704;50.534;6.442;2024-03-17T01:13:50;6.22;;;3.50;;
62633;SDS011;48704;50.534;6.442;2024-03-17T01:16:15;6.65;;;3.88;;
62633;SDS011;48704;50.534;6.442;2024-03-17T01:18:41;5.55;;;3.22;;
62633;SDS011;48704;50.534;6.442;2024-03-17T01:21:08;6.95;;;3.58;;
62633;SDS011;48704;50.534;6.442;2024-03-17T01:23:33;6.70;;;3.10;;
62633;SDS011;48704;50.534;6.442;2024-03-17T01:25:58;6.10;;;3.25;;
62633;SDS011;48704;50.534;6.442;2024-03-17T01:28:24;6.13;;;3.28;;
62633;SDS011;48704;50.534;6.442;2024-03-17T01:30:49;6.45;;;3.55;;
62633;SDS011;48704;50.534;6.442;2024-03-17T01:33:14;7.57;;;3.40;;
62633;SDS011;48704;50.534;6.442;2024-03-17T01:35:42;6.40;;;3.47;;
62633;SDS011;48704;50.534;6.442;2024-03-17T01:38:08;7.68;;;3.55;;
62633;SDS011;48704;50.534;6.442;2024-03-17T01:40:35;8.10;;;3.65;;
62633;SDS011;48704;50.534;6.442;2024-03-17T01:43:00;6.85;;;3.92;;
62633;SDS011;48704;50.534;6.442;2024-03-17T01:45:32;6.80;;;3.67;;
62633;SDS011;48704;50.534;6.442;2024-03-17T01:47:58;8.05;;;4.60;;
62633;SDS011;48704;50.534;6.442;2024-03-17T01:50:26;7.75;;;3.92;;
62633;SDS011;48704;50.534;6.442;2024-03-17T01:52:56;8.65;;;4.25;;
62633;SDS011;48704;50.534;6.442;2024-03-17T01:55:25;8.88;;;4.72;;
62633;SDS011;48704;50.534;6.442;2024-03-17T01:57:52;8.13;;;4.68;;
62633;SDS011;48704;50.534;6.442;2024-03-17T02:00:18;6.55;;;4.10;;
62633;SDS011;48704;50.534;6.442;2024-03-17T02:02:43;8.15;;;3.88;;
62633;SDS011;48704;50.534;6.442;2024-03-17T02:05:09;6.50;;;3.85;;
62633;SDS011;48704;50.534;6.442;2024-03-17T02:07:35;5.95;;;3.85;;
62633;SDS011;48704;50.534;6.442;2024-03-17T02:10:00;6.32;;;3.85;;
62633;SDS011;48704;50.534;6.442;2024-03-17T02:12:28;8.10;;;4.43;;
62633;SDS011;48704;50.534;6.442;2024-03-17T02:14:55;8.02;;;4.60;;
62633;SDS011;48704;50.534;6.442;2024-03-17T02:17:21;7.80;;;4.53;;
62633;SDS011;48704;50.534;6.442;2024-03-17T02:19:46;7.30;;;4.00;;
62633;SDS011;48704;50.534;6.442;2024-03-17T02:22:15;7.22;;;3.78;;
62633;SDS011;48704;50.534;6.442;2024-03-17T02:24:42;7.70;;;3.92;;
62633;SDS011;48704;50.534;6.442;2024-03-17T02:27:07;7.78;;;3.80;;
62633;SDS011;48704;50.534;6.442;2024-03-17T02:29:32;6.75;;;3.60;;
62633;SDS011;48704;50.534;6.442;2024-03-17T02:31:57;6.00;;;3.28;;
62633;SDS011;48704;50.534;6.442;2024-03-17T02:34:23;8.50;;;3.90;;
62633;SDS011;48704;50.534;6.442;2024-03-17T02:36:48;7.15;;;3.47;;
62633;SDS011;48704;50.534;6.442;2024-03-17T02:39:14;8.52;;;3.85;;
62633;SDS011;48704;50.534;6.442;2024-03-17T02:41:58;8.10;;;3.50;;
62633;SDS011;48704;50.534;6.442;2024-03-17T02:44:23;6.95;;;3.05;;
62633;SDS011;48704;50.534;6.442;2024-03-17T02:46:49;6.63;;;3.53;;
62633;SDS011;48704;50.534;6.442;2024-03-17T02:49:14;5.15;;;3.20;;
62633;SDS011;48704;50.534;6.442;2024-03-17T02:51:43;7.15;;;3.67;;
62633;SDS011;48704;50.534;6.442;2024-03-17T02:54:08;6.88;;;3.28;;
62633;SDS011;48704;50.534;6.442;2024-03-17T02:56:34;7.35;;;3.88;;
62633;SDS011;48704;50.534;6.442;2024-03-17T02:58:59;8.73;;;4.22;;
62633;SDS011;48704;50.534;6.442;2024-03-17T03:01:25;6.63;;;4.00;;
62633;SDS011;48704;50.534;6.442;2024-03-17T03:03:50;8.43;;;4.35;;
62633;SDS011;48704;50.534;6.442;2024-03-17T03:06:15;7.43;;;4.22;;
62633;SDS011;48704;50.534;6.442;2024-03-17T03:08:44;5.88;;;3.30;;
62633;SDS011;48704;50.534;6.442;2024-03-17T03:11:13;7.43;;;4.00;;
62633;SDS011;48704;50.534;6.442;2024-03-17T03:13:39;7.25;;;3.63;;
62633;SDS011;48704;50.534;6.442;2024-03-17T03:16:09;6.65;;;3.45;;
62633;SDS011;48704;50.534;6.442;2024-03-17T03:18:36;7.78;;;3.78;;
62633;SDS011;48704;50.534;6.442;2024-03-17T03:21:02;5.88;;;3.22;;
62633;SDS011;48704;50.534;6.442;2024-03-17T03:23:28;5.00;;;2.90;;
62633;SDS011;48704;50.534;6.442;2024-03-17T03:25:55;7.03;;;3.72;;
62633;SDS011;48704;50.534;6.442;2024-03-17T03:28:24;8.70;;;4.00;;
62633;SDS011;48704;50.534;6.442;2024-03-17T03:30:50;6.80;;;3.35;;
62633;SDS011;48704;50.534;6.442;2024-03-17T03:33:16;8.50;;;4.40;;
62633;SDS011;48704;50.534;6.442;2024-03-17T03:35:43;6.25;;;3.25;;
62633;SDS011;48704;50.534;6.442;2024-03-17T03:38:08;8.50;;;3.88;;
62633;SDS011;48704;50.534;6.442;2024-03-17T03:40:33;6.63;;;3.92;;
62633;SDS011;48704;50.534;6.442;2024-03-17T03:42:59;7.30;;;3.30;;
62633;SDS011;48704;50.534;6.442;2024-03-17T03:45:34;6.05;;;3.67;;
62633;SDS011;48704;50.534;6.442;2024-03-17T03:48:00;7.72;;;3.97;;
62633;SDS011;48704;50.534;6.442;2024-03-17T03:50:27;7.57;;;3.90;;
62633;SDS011;48704;50.534;6.442;2024-03-17T03:52:53;5.85;;;3.38;;
62633;SDS011;48704;50.534;6.442;2024-03-17T03:55:18;8.68;;;4.07;;
62633;SDS011;48704;50.534;6.442;2024-03-17T03:57:44;7.97;;;3.65;;
62633;SDS011;48704;50.534;6.442;2024-03-17T04:00:16;6.90;;;3.78;;
62633;SDS011;48704;50.534;6.442;2024-03-17T04:02:46;7.10;;;3.67;;
62633;SDS011;48704;50.534;6.442;2024-03-17T04:05:15;8.05;;;3.25;;
62633;SDS011;48704;50.534;6.442;2024-03-17T04:07:41;8.77;;;3.67;;
62633;SDS011;48704;50.534;6.442;2024-03-17T04:10:08;6.75;;;3.50;;
62633;SDS011;48704;50.534;6.442;2024-03-17T04:12:34;5.68;;;2.97;;
62633;SDS011;48704;50.534;6.442;2024-03-17T04:14:59;7.53;;;3.28;;
62633;SDS011;48704;50.534;6.442;2024-03-17T04:17:25;6.15;;;2.88;;
62633;SDS011;48704;50.534;6.442;2024-03-17T04:19:51;6.60;;;3.13;;
62633;SDS011;48704;50.534;6.442;2024-03-17T04:22:17;5.18;;;2.90;;
62633;SDS011;48704;50.534;6.442;2024-03-17T04:24:43;5.28;;;2.88;;
62633;SDS011;48704;50.534;6.442;2024-03-17T04:27:10;8.63;;;3.20;;
62633;SDS011;48704;50.534;6.442;2024-03-17T04:29:36;4.95;;;2.72;;
62633;SDS011;48704;50.534;6.442;2024-03-17T04:32:01;6.10;;;3.20;;
62633;SDS011;48704;50.534;6.442;2024-03-17T04:34:27;5.72;;;3.05;;
62633;SDS011;48704;50.534;6.442;2024-03-17T04:36:52;7.10;;;3.25;;
62633;SDS011;48704;50.534;6.442;2024-03-17T04:39:18;8.57;;;3.13;;
62633;SDS011;48704;50.534;6.442;2024-03-17T04:41:47;5.55;;;3.20;;
62633;SDS011;48704;50.534;6.442;2024-03-17T04:44:13;5.10;;;2.47;;
62633;SDS011;48704;50.534;6.442;2024-03-17T04:46:38;8.85;;;3.38;;
62633;SDS011;48704;50.534;6.442;2024-03-17T04:49:04;6.00;;;3.05;;
62633;SDS011;48704;50.534;6.442;2024-03-17T04:51:29;6.20;;;2.92;;
62633;SDS011;48704;50.534;6.442;2024-03-17T04:53:54;6.38;;;2.97;;
62633;SDS011;48704;50.534;6.442;2024-03-17T04:56:20;6.80;;;2.92;;
62633;SDS011;48704;50.534;6.442;2024-03-17T04:58:46;6.95;;;3.53;;
62633;SDS011;48704;50.534;6.442;2024-03-17T05:01:11;5.68;;;3.03;;
62633;SDS011;48704;50.534;6.442;2024-03-17T05:03:38;5.03;;;3.10;;
62633;SDS011;48704;50.534;6.442;2024-03-17T05:06:04;6.72;;;3.00;;
62633;SDS011;48704;50.534;6.442;2024-03-17T05:08:30;5.53;;;3.08;;
62633;SDS011;48704;50.534;6.442;2024-03-17T05:10:57;5.60;;;2.63;;
62633;SDS011;48704;50.534;6.442;2024-03-17T05:13:23;5.85;;;2.78;;
62633;SDS011;48704;50.534;6.442;2024-03-17T05:15:50;4.40;;;1.98;;
62633;SDS011;48704;50.534;6.442;2024-03-17T05:18:15;4.55;;;2.30;;
62633;SDS011;48704;50.534;6.442;2024-03-17T05:20:40;5.40;;;2.60;;
62633;SDS011;48704;50.534;6.442;2024-03-17T05:23:05;4.60;;;2.67;;
62633;SDS011;48704;50.534;6.442;2024-03-17T05:25:31;5.93;;;2.50;;
62633;SDS011;48704;50.534;6.442;2024-03-17T05:28:01;5.32;;;2.58;;
62633;SDS011;48704;50.534;6.442;2024-03-17T05:30:27;5.20;;;2.10;;
62633;SDS011;48704;50.534;6.442;2024-03-17T05:32:52;5.50;;;2.40;;
62633;SDS011;48704;50.534;6.442;2024-03-17T05:35:17;4.57;;;2.50;;
62633;SDS011;48704;50.534;6.442;2024-03-17T05:37:42;7.85;;;2.92;;
62633;SDS011;48704;50.534;6.442;2024-03-17T05:40:09;4.30;;;2.53;;
62633;SDS011;48704;50.534;6.442;2024-03-17T05:42:37;5.53;;;2.70;;
62633;SDS011;48704;50.534;6.442;2024-03-17T05:45:03;6.65;;;2.97;;
62633;SDS011;48704;50.534;6.442;2024-03-17T05:47:28;4.70;;;2.70;;
62633;SDS011;48704;50.534;6.442;2024-03-17T05:49:54;5.43;;;2.88;;
62633;SDS011;48704;50.534;6.442;2024-03-17T05:52:20;7.65;;;3.72;;
62633;SDS011;48704;50.534;6.442;2024-03-17T05:54:46;5.72;;;3.00;;
62633;SDS011;48704;50.534;6.442;2024-03-17T05:57:12;5.80;;;3.00;;
62633;SDS011;48704;50.534;6.442;2024-03-17T05:59:39;6.50;;;3.17;;
62633;SDS011;48704;50.534;6.442;2024-03-17T06:02:04;5.90;;;3.50;;
62633;SDS011;48704;50.534;6.442;2024-03-17T06:04:29;5.70;;;2.88;;
62633;SDS011;48704;50.534;6.442;2024-03-17T06:06:55;4.30;;;2.80;;
62633;SDS011;48704;50.534;6.442;2024-03-17T06:09:20;5.88;;;2.80;;
62633;SDS011;48704;50.534;6.442;2024-03-17T06:11:46;7.10;;;3.03;;
62633;SDS011;48704;50.534;6.442;2024-03-17T06:14:11;5.97;;;3.00;;
62633;SDS011;48704;50.534;6.442;2024-03-17T06:16:38;5.22;;;2.83;;
62633;SDS011;48704;50.534;6.442;2024-03-17T06:19:03;6.38;;;3.10;;
62633;SDS011;48704;50.534;6.442;2024-03-17T06:21:28;7.10;;;3.53;;
62633;SDS011;48704;50.534;6.442;2024-03-17T06:23:54;6.70;;;4.30;;
62633;SDS011;48704;50.534;6.442;2024-03-17T06:26:19;7.43;;;3.55;;
62633;SDS011;48704;50.534;6.442;2024-03-17T06:28:45;6.28;;;3.28;;
62633;SDS011;48704;50.534;6.442;2024-03-17T06:31:11;11.25;;;3.85;;
62633;SDS011;48704;50.534;6.442;2024-03-17T06:33:36;5.70;;;3.40;;
62633;SDS011;48704;50.534;6.442;2024-03-17T06:36:05;6.90;;;3.47;;
62633;SDS011;48704;50.534;6.442;2024-03-17T06:38:31;6.38;;;3.33;;
62633;SDS011;48704;50.534;6.442;2024-03-17T06:40:57;6.68;;;3.72;;
62633;SDS011;48704;50.534;6.442;2024-03-17T06:43:22;7.35;;;4.35;;
62633;SDS011;48704;50.534;6.442;2024-03-17T06:45:54;6.53;;;3.63;;
62633;SDS011;48704;50.534;6.442;2024-03-17T06:48:20;5.93;;;3.38;;
62633;SDS011;48704;50.534;6.442;2024-03-17T06:50:46;5.93;;;3.33;;
62633;SDS011;48704;50.534;6.442;2024-03-17T06:53:11;10.68;;;4.70;;
62633;SDS011;48704;50.534;6.442;2024-03-17T06:55:37;5.80;;;3.30;;
62633;SDS011;48704;50.534;6.442;2024-03-17T06:58:02;10.18;;;4.10;;
62633;SDS011;48704;50.534;6.442;2024-03-17T07:00:28;7.28;;;3.83;;
62633;SDS011;48704;50.534;6.442;2024-03-17T07:02:53;7.10;;;3.55;;
62633;SDS011;48704;50.534;6.442;2024-03-17T07:05:19;6.97;;;3.80;;
62633;SDS011;48704;50.534;6.442;2024-03-17T07:07:44;7.07;;;3.65;;
62633;SDS011;48704;50.534;6.442;2024-03-17T07:10:11;8.65;;;3.70;;
62633;SDS011;48704;50.534;6.442;2024-03-17T07:12:37;9.10;;;4.20;;
62633;SDS011;48704;50.534;6.442;2024-03-17T07:15:06;7.43;;;2.97;;
62633;SDS011;48704;50.534;6.442;2024-03-17T07:17:33;7.13;;;3.53;;
62633;SDS011;48704;50.534;6.442;2024-03-17T07:19:59;9.77;;;4.43;;
62633;SDS011;48704;50.534;6.442;2024-03-17T07:22:24;5.95;;;3.28;;
62633;SDS011;48704;50.534;6.442;2024-03-17T07:24:54;6.32;;;3.90;;
62633;SDS011;48704;50.534;6.442;2024-03-17T07:27:21;9.02;;;4.15;;
62633;SDS011;48704;50.534;6.442;2024-03-17T07:29:47;6.85;;;3.60;;
62633;SDS011;48704;50.534;6.442;2024-03-17T07:32:12;8.93;;;4.25;;
62633;SDS011;48704;50.534;6.442;2024-03-17T07:34:38;7.15;;;3.78;;
62633;SDS011;48704;50.534;6.442;2024-03-17T07:37:03;7.90;;;3.55;;
62633;SDS011;48704;50.534;6.442;2024-03-17T07:39:29;5.80;;;3.40;;
62633;SDS011;48704;50.534;6.442;2024-03-17T07:41:57;8.82;;;3.72;;
62633;SDS011;48704;50.534;6.442;2024-03-17T07:44:23;6.38;;;3.67;;
62633;SDS011;48704;50.534;6.442;2024-03-17T07:46:49;8.10;;;4.00;;
62633;SDS011;48704;50.534;6.442;2024-03-17T07:49:14;8.43;;;3.97;;
62633;SDS011;48704;50.534;6.442;2024-03-17T07:51:41;9.07;;;3.95;;
62633;SDS011;48704;50.534;6.442;2024-03-17T07:54:06;9.57;;;4.57;;
62633;SDS011;48704;50.534;6.442;2024-03-17T07:56:32;8.90;;;4.20;;
62633;SDS011;48704;50.534;6.442;2024-03-17T07:58:57;8.00;;;4.22;;
62633;SDS011;48704;50.534;6.442;2024-03-17T08:01:22;11.40;;;4.45;;
62633;SDS011;48704;50.534;6.442;2024-03-17T08:03:48;11.05;;;4.50;;
62633;SDS011;48704;50.534;6.442;2024-03-17T08:06:20;8.23;;;4.22;;
62633;SDS011;48704;50.534;6.442;2024-03-17T08:08:46;8.88;;;4.15;;
62633;SDS011;48704;50.534;6.442;2024-03-17T08:11:12;10.98;;;4.10;;
62633;SDS011;48704;50.534;6.442;2024-03-17T08:13:38;7.10;;;4.20;;
62633;SDS011;48704;50.534;6.442;2024-03-17T08:16:04;9.82;;;4.57;;
62633;SDS011;48704;50.534;6.442;2024-03-17T08:18:31;9.15;;;4.72;;
62633;SDS011;48704;50.534;6.442;2024-03-17T08:20:57;10.13;;;4.53;;
62633;SDS011;48704;50.534;6.442;2024-03-17T08:23:24;9.02;;;3.97;;
62633;SDS011;48704;50.534;6.442;2024-03-17T08:28:22;9.25;;;4.15;;
62633;SDS011;48704;50.534;6.442;2024-03-17T08:30:54;7.72;;;4.28;;
62633;SDS011;48704;50.534;6.442;2024-03-17T08:33:21;7.60;;;4.03;;
62633;SDS011;48704;50.534;6.442;2024-03-17T08:35:58;8.55;;;3.67;;
62633;SDS011;48704;50.534;6.442;2024-03-17T08:38:24;10.32;;;4.07;;
62633;SDS011;48704;50.534;6.442;2024-03-17T08:40:50;7.53;;;4.10;;
62633;SDS011;48704;50.534;6.442;2024-03-17T08:43:16;7.68;;;4.82;;
62633;SDS011;48704;50.534;6.442;2024-03-17T08:45:42;7.93;;;4.03;;
62633;SDS011;48704;50.534;6.442;2024-03-17T08:48:08;9.43;;;4.63;;
62633;SDS011;48704;50.534;6.442;2024-03-17T08:50:34;6.85;;;4.28;;
62633;SDS011;48704;50.534;6.442;2024-03-17T08:52:59;9.55;;;4.43;;
62633;SDS011;48704;50.534;6.442;2024-03-17T08:55:25;9.35;;;4.28;;
62633;SDS011;48704;50.534;6.442;2024-03-17T08:57:50;9.38;;;4.53;;
62633;SDS011;48704;50.534;6.442;2024-03-17T09:00:15;8.70;;;4.22;;
62633;SDS011;48704;50.534;6.442;2024-03-17T09:02:41;9.85;;;5.43;;
62633;SDS011;48704;50.534;6.442;2024-03-17T09:05:06;8.60;;;4.72;;
62633;SDS011;48704;50.534;6.442;2024-03-17T09:07:32;10.32;;;4.63;;
62633;SDS011;48704;50.534;6.442;2024-03-17T09:09:57;9.20;;;5.18;;
62633;SDS011;48704;50.534;6.442;2024-03-17T09:12:24;8.18;;;4.63;;
62633;SDS011;48704;50.534;6.442;2024-03-17T09:14:49;9.85;;;4.60;;
62633;SDS011;48704;50.534;6.442;2024-03-17T09:17:14;9.88;;;4.90;;
62633;SDS011;48704;50.534;6.442;2024-03-17T09:19:40;12.00;;;4.93;;
62633;SDS011;48704;50.534;6.442;2024-03-17T09:22:06;15.93;;;5.70;;
62633;SDS011;48704;50.534;6.442;2024-03-17T09:24:31;10.13;;;5.57;;
62633;SDS011;48704;50.534;6.442;2024-03-17T09:26:56;8.88;;;4.88;;
62633;SDS011;48704;50.534;6.442;2024-03-17T09:29:22;10.05;;;4.93;;
62633;SDS011;48704;50.534;6.442;2024-03-17T09:31:48;7.47;;;3.72;;
62633;SDS011;48704;50.534;6.442;2024-03-17T09:34:14;9.60;;;5.15;;
62633;SDS011;48704;50.534;6.442;2024-03-17T09:36:40;9.77;;;4.47;;
62633;SDS011;48704;50.534;6.442;2024-03-17T09:39:05;10.55;;;5.38;;
62633;SDS011;48704;50.534;6.442;2024-03-17T09:41:31;9.77;;;5.05;;
62633;SDS011;48704;50.534;6.442;2024-03-17T09:43:56;8.13;;;5.00;;
62633;SDS011;48704;50.534;6.442;2024-03-17T09:46:23;9.25;;;4.63;;
62633;SDS011;48704;50.534;6.442;2024-03-17T09:48:51;9.52;;;4.70;;
62633;SDS011;48704;50.534;6.442;2024-03-17T09:51:24;10.05;;;4.20;;
62633;SDS011;48704;50.534;6.442;2024-03-17T09:53:50;9.88;;;4.55;;
62633;SDS011;48704;50.534;6.442;2024-03-17T09:56:18;9.35;;;4.18;;
62633;SDS011;48704;50.534;6.442;2024-03-17T09:58:50;10.70;;;4.45;;
62633;SDS011;48704;50.534;6.442;2024-03-17T10:01:16;9.90;;;4.75;;
62633;SDS011;48704;50.534;6.442;2024-03-17T10:03:45;8.52;;;4.82;;
62633;SDS011;48704;50.534;6.442;2024-03-17T10:06:20;10.85;;;4.60;;
62633;SDS011;48704;50.534;6.442;2024-03-17T10:08:48;9.68;;;5.25;;
62633;SDS011;48704;50.534;6.442;2024-03-17T10:11:19;7.85;;;4.32;;
62633;SDS011;48704;50.534;6.442;2024-03-17T10:13:46;8.10;;;4.30;;
62633;SDS011;48704;50.534;6.442;2024-03-17T10:16:24;12.18;;;4.72;;
62633;SDS011;48704;50.534;6.442;2024-03-17T10:18:51;12.23;;;5.78;;
62633;SDS011;48704;50.534;6.442;2024-03-17T10:21:31;13.88;;;5.03;;
62633;SDS011;48704;50.534;6.442;2024-03-17T10:29:26;11.73;;;5.13;;
62633;SDS011;48704;50.534;6.442;2024-03-17T10:32:01;10.55;;;5.22;;
62633;SDS011;48704;50.534;6.442;2024-03-17T10:34:50;11.75;;;4.80;;
62633;SDS011;48704;50.534;6.442;2024-03-17T10:37:19;11.70;;;4.93;;
62633;SDS011;48704;50.534;6.442;2024-03-17T10:39:48;10.10;;;4.30;;
62633;SDS011;48704;50.534;6.442;2024-03-17T10:42:27;9.82;;;4.78;;
62633;SDS011;48704;50.534;6.442;2024-03-17T10:44:53;10.77;;;5.43;;
62633;SDS011;48704;50.534;6.442;2024-03-17T10:47:21;15.55;;;5.30;;
62633;SDS011;48704;50.534;6.442;2024-03-17T10:49:52;10.45;;;4.88;;
62633;SDS011;48704;50.534;6.442;2024-03-17T10:52:20;7.90;;;4.38;;
62633;SDS011;48704;50.534;6.442;2024-03-17T10:54:50;10.68;;;4.88;;
62633;SDS011;48704;50.534;6.442;2024-03-17T11:02:32;13.65;;;4.00;;
62633;SDS011;48704;50.534;6.442;2024-03-17T11:05:02;7.68;;;4.32;;
62633;SDS011;48704;50.534;6.442;2024-03-17T11:07:29;11.60;;;5.38;;
62633;SDS011;48704;50.534;6.442;2024-03-17T11:09:57;12.18;;;4.63;;
62633;SDS011;48704;50.534;6.442;2024-03-17T11:17:43;8.57;;;3.88;;
62633;SDS011;48704;50.534;6.442;2024-03-17T11:20:16;9.52;;;4.38;;
62633;SDS011;48704;50.534;6.442;2024-03-17T11:28:10;6.35;;;3.60;;
62633;SDS011;48704;50.534;6.442;2024-03-17T11:30:56;7.10;;;3.90;;
62633;SDS011;48704;50.534;6.442;2024-03-17T11:47:02;4.95;;;2.30;;
62633;SDS011;48704;50.534;6.442;2024-03-17T11:49:38;5.63;;;2.78;;
62633;SDS011;48704;50.534;6.442;2024-03-17T11:52:09;4.30;;;2.35;;
62633;SDS011;48704;50.534;6.442;2024-03-17T11:54:36;6.60;;;2.80;;
62633;SDS011;48704;50.534;6.442;2024-03-17T11:57:03;6.78;;;2.80;;
62633;SDS011;48704;50.534;6.442;2024-03-17T11:59:34;7.13;;;3.10;;
62633;SDS011;48704;50.534;6.442;2024-03-17T12:01:59;6.28;;;2.83;;
62633;SDS011;48704;50.534;6.442;2024-03-17T12:04:26;6.50;;;2.88;;
62633;SDS011;48704;50.534;6.442;2024-03-17T12:06:55;5.35;;;2.85;;
62633;SDS011;48704;50.534;6.442;2024-03-17T12:09:22;9.50;;;2.53;;
62633;SDS011;48704;50.534;6.442;2024-03-17T12:14:23;5.47;;;3.22;;
62633;SDS011;48704;50.534;6.442;2024-03-17T12:16:54;9.57;;;4.15;;
62633;SDS011;48704;50.534;6.442;2024-03-17T12:19:21;6.28;;;3.03;;
62633;SDS011;48704;50.534;6.442;2024-03-17T12:21:51;8.07;;;3.30;;
62633;SDS011;48704;50.534;6.442;2024-03-17T12:24:19;6.15;;;3.85;;
62633;SDS011;48704;50.534;6.442;2024-03-17T12:26:50;9.60;;;3.85;;
62633;SDS011;48704;50.534;6.442;2024-03-17T12:29:24;8.02;;;3.42;;
62633;SDS011;48704;50.534;6.442;2024-03-17T12:31:53;7.80;;;3.58;;
62633;SDS011;48704;50.534;6.442;2024-03-17T12:34:20;8.13;;;3.58;;
62633;SDS011;48704;50.534;6.442;2024-03-17T12:36:46;7.47;;;3.33;;
62633;SDS011;48704;50.534;6.442;2024-03-17T12:39:34;7.43;;;3.55;;
62633;SDS011;48704;50.534;6.442;2024-03-17T12:44:33;6.78;;;3.40;;
62633;SDS011;48704;50.534;6.442;2024-03-17T12:47:01;6.22;;;4.18;;
62633;SDS011;48704;50.534;6.442;2024-03-17T12:49:34;5.80;;;3.47;;
62633;SDS011;48704;50.534;6.442;2024-03-17T12:52:00;7.32;;;3.70;;
62633;SDS011;48704;50.534;6.442;2024-03-17T12:54:26;7.95;;;4.20;;
62633;SDS011;48704;50.534;6.442;2024-03-17T12:57:05;8.45;;;3.75;;
62633;SDS011;48704;50.534;6.442;2024-03-17T12:59:52;7.95;;;3.28;;
62633;SDS011;48704;50.534;6.442;2024-03-17T13:02:41;6.25;;;3.70;;
62633;SDS011;48704;50.534;6.442;2024-03-17T13:05:14;10.48;;;4.15;;
62633;SDS011;48704;50.534;6.442;2024-03-17T13:07:44;8.05;;;3.90;;
62633;SDS011;48704;50.534;6.442;2024-03-17T13:10:13;7.57;;;3.95;;
62633;SDS011;48704;50.534;6.442;2024-03-17T13:12:40;8.05;;;3.72;;
62633;SDS011;48704;50.534;6.442;2024-03-17T13:15:07;9.10;;;3.85;;
62633;SDS011;48704;50.534;6.442;2024-03-17T13:17:34;7.82;;;4.30;;
62633;SDS011;48704;50.534;6.442;2024-03-17T13:20:00;8.45;;;3.88;;
62633;SDS011;48704;50.534;6.442;2024-03-17T13:22:26;6.82;;;4.13;;
62633;SDS011;48704;50.534;6.442;2024-03-17T13:24:51;7.50;;;3.45;;
62633;SDS011;48704;50.534;6.442;2024-03-17T13:27:17;9.68;;;4.35;;
62633;SDS011;48704;50.534;6.442;2024-03-17T13:29:42;10.40;;;3.75;;
62633;SDS011;48704;50.534;6.442;2024-03-17T13:32:11;10.48;;;4.18;;
62633;SDS011;48704;50.534;6.442;2024-03-17T13:34:37;8.27;;;3.72;;
62633;SDS011;48704;50.534;6.442;2024-03-17T13:37:02;7.43;;;3.60;;
62633;SDS011;48704;50.534;6.442;2024-03-17T13:39:31;6.32;;;3.47;;
62633;SDS011;48704;50.534;6.442;2024-03-17T13:41:57;7.35;;;3.90;;
62633;SDS011;48704;50.534;6.442;2024-03-17T13:44:28;7.55;;;3.75;;
62633;SDS011;48704;50.534;6.442;2024-03-17T13:46:57;6.97;;;3.30;;
62633;SDS011;48704;50.534;6.442;2024-03-17T13:49:29;17.80;;;7.82;;
62633;SDS011;48704;50.534;6.442;2024-03-17T13:51:55;9.90;;;4.68;;
62633;SDS011;48704;50.534;6.442;2024-03-17T13:54:20;12.30;;;5.15;;
62633;SDS011;48704;50.534;6.442;2024-03-17T13:56:48;9.13;;;3.03;;
62633;SDS011;48704;50.534;6.442;2024-03-17T13:59:17;9.20;;;3.22;;
62633;SDS011;48704;50.534;6.442;2024-03-17T14:01:43;6.50;;;2.92;;
62633;SDS011;48704;50.534;6.442;2024-03-17T14:04:15;8.07;;;2.95;;
62633;SDS011;48704;50.534;6.442;2024-03-17T14:06:44;8.13;;;2.78;;
62633;SDS011;48704;50.534;6.442;2024-03-17T14:09:10;6.95;;;2.80;;
62633;SDS011;48704;50.534;6.442;2024-03-17T14:11:36;4.63;;;2.45;;
62633;SDS011;48704;50.534;6.442;2024-03-17T14:14:02;5.97;;;2.50;;
62633;SDS011;48704;50.534;6.442;2024-03-17T14:16:29;5.50;;;2.28;;
62633;SDS011;48704;50.534;6.442;2024-03-17T14:18:56;5.55;;;2.38;;
62633;SDS011;48704;50.534;6.442;2024-03-17T14:21:22;4.07;;;2.05;;
62633;SDS011;48704;50.534;6.442;2024-03-17T14:23:47;3.80;;;1.80;;
62633;SDS011;48704;50.534;6.442;2024-03-17T14:26:13;4.78;;;1.98;;
62633;SDS011;48704;50.534;6.442;2024-03-17T14:28:38;6.38;;;1.67;;
62633;SDS011;48704;50.534;6.442;2024-03-17T14:31:03;5.53;;;1.90;;
62633;SDS011;48704;50.534;6.442;2024-03-17T14:33:29;3.05;;;1.50;;
62633;SDS011;48704;50.534;6.442;2024-03-17T14:35:57;4.32;;;1.77;;
62633;SDS011;48704;50.534;6.442;2024-03-17T14:38:23;2.88;;;1.02;;
62633;SDS011;48704;50.534;6.442;2024-03-17T14:40:51;3.95;;;1.45;;
62633;SDS011;48704;50.534;6.442;2024-03-17T14:43:18;2.90;;;1.40;;
62633;SDS011;48704;50.534;6.442;2024-03-17T14:45:44;3.00;;;1.30;;
62633;SDS011;48704;50.534;6.442;2024-03-17T14:48:10;3.53;;;1.48;;
62633;SDS011;48704;50.534;6.442;2024-03-17T14:50:36;4.55;;;1.83;;
62633;SDS011;48704;50.534;6.442;2024-03-17T14:53:01;4.22;;;1.67;;
62633;SDS011;48704;50.534;6.442;2024-03-17T14:55:27;3.30;;;1.70;;
62633;SDS011;48704;50.534;6.442;2024-03-17T14:57:53;3.58;;;1.45;;
62633;SDS011;48704;50.534;6.442;2024-03-17T15:00:19;2.92;;;1.33;;
62633;SDS011;48704;50.534;6.442;2024-03-17T15:02:45;2.83;;;1.58;;
62633;SDS011;48704;50.534;6.442;2024-03-17T15:05:12;3.35;;;1.08;;
62633;SDS011;48704;50.534;6.442;2024-03-17T15:07:39;3.88;;;1.33;;
62633;SDS011;48704;50.534;6.442;2024-03-17T15:10:05;2.95;;;1.40;;
62633;SDS011;48704;50.534;6.442;2024-03-17T15:12:31;3.35;;;1.58;;
62633;SDS011;48704;50.534;6.442;2024-03-17T15:14:57;5.40;;;1.50;;
62633;SDS011;48704;50.534;6.442;2024-03-17T15:17:22;3.22;;;1.25;;
62633;SDS011;48704;50.534;6.442;2024-03-17T15:19:48;3.25;;;1.73;;
62633;SDS011;48704;50.534;6.442;2024-03-17T15:22:13;5.68;;;2.10;;
62633;SDS011;48704;50.534;6.442;2024-03-17T15:24:39;5.90;;;1.80;;
62633;SDS011;48704;50.534;6.442;2024-03-17T15:27:04;5.28;;;1.77;;